• Join FlightAware (Why Join?)
  • Login
  • US Flag 
07:00PM EDT


 

Airport Tracker/Info


-or-


 

Live Flight TrackerFlight Track Log ✈ CTL18 ✈ 09-Jul-2013 ✈ KYIP - KBKL

Flight Track Log - Related Links

Times and Time Zones

All times are in EDT time to prevent confusion due to time zone crossing. See the CTL18 flight status page for this flight to view local times or setup timezone preferences in your user account.

Time Position Orientation Groundspeed Altitude Reporting Facility
EDT Latitude Longitude Course Direction KTS MPH feet Rate Location/Type
09:01PM 42.2022 -83.5769 223° Southwest 122 140 1,600  Level Cleveland Center
09:02PM 42.1703 -83.6089 217° Southwest 138 159 2,300 600 Climbing Cleveland Center
09:03PM 42.1261 -83.6181 189° South 154 177 2,900 360 Climbing Cleveland Center
09:04PM 42.0886 -83.6164 178° South 155 178 3,100 60 Climbing Cleveland Center
09:05PM 42.0428 -83.6197 183° South 167 192 3,100  Level Cleveland Center
09:06PM 41.9992 -83.6147 175° South 178 205 3,100  Level Cleveland Center
09:07PM 41.9839 -83.5556 109° East 188 216 3,100  Level Cleveland Center
09:08PM 41.9672 -83.4764 106° East 196 226 3,100  Level Cleveland Center
09:09PM 41.9519 -83.4200 110° East 193 222 3,100 240 Level Cleveland Center
09:10PM 41.9369 -83.3522 107° East 186 214 3,600 540 Climbing Cleveland Center
09:11PM 41.9197 -83.2872 110° East 178 205 4,200 600 Climbing Cleveland Center
09:12PM 41.9067 -83.2253 106° East 172 198 4,900 420 Climbing Cleveland Center
09:13PM 41.8892 -83.1633 111° Southeast 183 211 5,100 60 Climbing Cleveland Center
09:14PM 41.8719 -83.0928 108° East 195 224 5,100  Level Cleveland Center
09:15PM 41.8547 -83.0197 108° East 197 227 5,200 60 Climbing Cleveland Center
09:15PM 41.8450 -82.9886 113° Southeast 196 226 5,200  Level Cleveland Center
09:16PM 41.8300 -82.9156 105° East 193 222 5,200 -60 Level Cleveland Center
09:17PM 41.8103 -82.8481 111° Southeast 194 223 5,100 -60 Descending Cleveland Center
09:18PM 41.7950 -82.7778 106° East 195 224 5,100  Level Cleveland Center
09:19PM 41.7797 -82.7078 106° East 201 231 5,200  Climbing Cleveland Center
09:20PM 41.7664 -82.6378 104° East 197 227 5,100  Descending Cleveland Center
09:21PM 41.7469 -82.5619 109° East 196 226 5,200  Climbing Cleveland Center
09:23PM 41.7294 -82.4889 108° East 199 229 5,200  Level Cleveland Center
09:24PM 41.7097 -82.4161 110° East 196 226 5,200  Level Cleveland Center
09:25PM 41.6900 -82.3461 111° Southeast 198 228 5,200  Level Cleveland Center
09:26PM 41.6742 -82.2817 108° East 200 230 5,200 -300 Level Cleveland Center
09:27PM 41.6506 -82.1950 110° East 208 239 4,600 -600 Descending Cleveland Center
09:28PM 41.6369 -82.1222 104° East 207 238 4,000 -660 Descending Cleveland Center
09:29PM 41.6192 -82.0525 109° East 209 241 3,400 -540 Descending Cleveland Center
09:30PM 41.5992 -81.9769 109° East 209 241 3,000 -600 Descending Cleveland Center
09:31PM 41.5814 -81.9044 108° East 210 242 2,200 -660 Descending Cleveland Center
09:32PM 41.5614 -81.8264 109° East 201 231 1,700 -300 Descending Cleveland Center
09:33PM 41.5494 -81.7594 103° East 178 205 1,600 -120 Descending Cleveland Center
09:34PM 41.5417 -81.6983 100° East 170 196 1,500 -120 Descending Cleveland Center